Terminal Aerodrome Forecast
Issued by NWS

Home | Current Version | Previous Version | Text Only | Print | Product List | Glossary Off
Versions: 1 2 3 4 5 6 7 8 9 10 11 12 13 14 15 16 17 18 19 20 21 22 23 24 25 26

000
FTUS43 KABR 240500
TAFMBG
TAF
KMBG 240523Z 2406/2506 13013KT P6SM BKN150
     FM240900 14015KT P6SM VCSH OVC080
     FM241400 15018G25KT P6SM VCSH OVC020
     FM242100 29018G25KT P6SM OVC025=

USA.gov is the U.S. government's official web portal to all federal, state and local government web resources and services.